LKNM weather

Nove Mesto Airport
Nové Město Nad Metují Moravě, Hradec Králové Region, Czech Republic

Public forecast

Using degrees Celsius for public forecast. Weather courtesy of forecast.io.

Closest aviation weather report (METAR) to Nove Mesto Airport

Closest report is Pardubice Airport, 25.5 nm (47.3 km) SW. Retrieved 2019/11/12 14:00 UTC (59 minutes ago):

LKPD 121400Z 28003KT 3000 -RA BR BKN006 OVC018 04/03 Q1008 NOSIG RMK YLO YLO

Closest aviation forecast (TAF) to Nove Mesto Airport

Closest forecast is Pardubice Airport, 25.5 nm (47.3 km) SW. Retrieved 2019/11/12 12:06 UTC (3 hours ago):

TAF COR LKPD 121100Z 1212/1312 30005KT 5000 RA BKN024 OVC030 TEMPO 1212/1217 02004KT 3000 RA BR SCT010 OVC020 TEMPO 1217/1312 1500 RASN BKN006 OVC012 TEMPO 1301/1305 2000 BR BKN005